Time;durP1;ratioP1;P1;durP2;ratioP2;P2;SDS_P1;SDS_P2;PMS_P1;PMS_P2;Temp;Humidity;BMP_temperature;BMP_pressure;BME280_temperature;BME280_humidity;BME280_pressure;Samples;Min_cycle;Max_cycle;Signal;HPM_P1;HPM_P2
2023/10/04 00:00:15;;;;;;;24.20;9.87;;;14.70;97.60;;;15.02;62.29;95688.09;5004500;28;20454;-59
2023/10/04 00:02:45;;;;;;;22.37;9.90;;;14.70;97.80;;;15.01;62.41;95689.09;4994598;28;20556;-60
2023/10/04 00:05:15;;;;;;;17.60;10.30;;;14.70;97.90;;;14.99;62.47;95683.09;5002682;28;20541;-60
2023/10/04 00:07:44;;;;;;;13.60;9.13;;;14.70;98.00;;;14.97;62.16;95681.59;4996103;28;21045;-60
2023/10/04 00:10:13;;;;;;;13.20;9.70;;;14.60;97.80;;;14.96;62.13;95678.09;4994977;28;21079;-60
2023/10/04 00:12:40;;;;;;;15.40;9.60;;;14.60;97.60;;;14.93;62.33;95678.38;5002674;28;20513;-60
2023/10/04 00:15:11;;;;;;;25.47;10.47;;;14.60;97.70;;;14.88;62.21;95670.03;5003077;28;20516;-60
2023/10/04 00:17:40;;;;;;;18.13;9.87;;;14.60;97.80;;;14.88;62.15;95675.34;4998523;28;20458;-60
2023/10/04 00:20:10;;;;;;;18.07;10.13;;;14.60;97.90;;;14.87;62.40;95665.72;4998293;28;20477;-59
2023/10/04 00:22:39;;;;;;;18.40;9.93;;;14.60;97.80;;;14.86;62.26;95666.72;5001583;28;20457;-59
2023/10/04 00:25:11;;;;;;;21.30;10.37;;;14.60;97.70;;;14.85;62.04;95665.03;5002788;28;20481;-59
2023/10/04 00:27:41;;;;;;;14.60;8.67;;;14.60;97.70;;;14.83;62.27;95675.78;5001112;28;20451;-59
2023/10/04 00:30:12;;;;;;;19.60;10.50;;;14.50;97.80;;;14.81;62.41;95668.94;4996514;28;20446;-60
2023/10/04 00:32:39;;;;;;;19.37;10.37;;;14.50;97.80;;;14.78;62.18;95672.75;5001575;28;20486;-58
2023/10/04 00:35:09;;;;;;;20.23;10.90;;;14.50;97.80;;;14.73;62.16;95669.69;5003230;28;20457;-61
2023/10/04 00:37:36;;;;;;;20.00;9.83;;;14.50;97.90;;;14.71;62.20;95671.66;5002077;28;20888;-61
2023/10/04 00:40:13;;;;;;;23.40;10.27;;;14.40;97.70;;;14.67;62.20;95663.16;4993896;28;20454;-60
2023/10/04 00:42:42;;;;;;;18.73;9.13;;;14.40;97.70;;;14.66;62.23;95664.13;5001363;28;20845;-59
2023/10/04 00:45:13;;;;;;;20.73;9.63;;;14.40;97.80;;;14.64;62.17;95668.75;5001096;28;20462;-60
2023/10/04 00:47:43;;;;;;;22.57;11.10;;;14.30;97.70;;;14.61;62.04;95658.44;4998521;28;20453;-60
2023/10/04 00:50:15;;;;;;;29.50;11.00;;;14.40;97.70;;;14.62;62.34;95661.94;5001801;28;20458;-60
2023/10/04 00:52:47;;;;;;;16.37;11.17;;;14.30;97.80;;;14.59;62.28;95665.66;5001578;28;20532;-60
2023/10/04 00:55:16;;;;;;;18.83;10.00;;;14.30;97.90;;;14.58;62.36;95666.66;4997441;28;20458;-60
2023/10/04 00:57:45;;;;;;;19.13;10.00;;;14.30;98.00;;;14.57;62.21;95666.81;5000102;28;20462;-61
2023/10/04 01:00:14;;;;;;;29.07;10.70;;;14.30;98.00;;;14.55;62.43;95663.44;4998344;28;20462;-59
2023/10/04 01:02:42;;;;;;;20.07;10.53;;;14.20;98.00;;;14.52;62.46;95667.22;4996830;28;20541;-60
2023/10/04 01:05:11;;;;;;;17.60;10.73;;;14.20;98.00;;;14.51;62.50;95662.91;5003560;28;20462;-59
2023/10/04 01:07:39;;;;;;;25.00;9.97;;;14.20;98.10;;;14.49;62.58;95670.16;5000391;28;20488;-59
2023/10/04 01:10:14;;;;;;;28.57;9.50;;;14.20;98.10;;;14.47;62.52;95672.13;4998234;28;20457;-60
2023/10/04 01:12:43;;;;;;;17.40;9.60;;;14.20;98.00;;;14.46;62.52;95670.47;4997621;28;20497;-59
2023/10/04 01:15:30;;;;;;;17.07;10.03;;;14.20;98.10;;;14.44;62.55;95669.78;4999895;28;20454;-61
2023/10/04 01:17:58;;;;;;;28.07;10.73;;;14.20;98.10;;;14.40;62.56;95666.56;5000483;28;20465;-60
2023/10/04 01:20:28;;;;;;;23.47;8.77;;;14.10;97.90;;;14.38;62.18;95670.34;5004161;28;20460;-60
2023/10/04 01:23:00;;;;;;;22.53;10.83;;;14.10;97.90;;;14.36;62.24;95675.78;4997800;28;20450;-59
2023/10/04 01:25:30;;;;;;;21.50;8.90;;;14.10;97.90;;;14.33;62.59;95674.25;5002039;28;20512;-60
2023/10/04 01:27:58;;;;;;;17.80;10.63;;;14.10;97.90;;;14.32;62.42;95679.69;5000445;28;20450;-60
2023/10/04 01:30:25;;;;;;;13.53;9.40;;;14.00;97.80;;;14.28;62.37;95671.22;4997904;28;20509;-59
2023/10/04 01:32:53;;;;;;;19.70;9.80;;;14.00;97.80;;;14.26;62.17;95674.97;5000374;28;20465;-60
2023/10/04 01:35:23;;;;;;;31.63;10.33;;;14.00;97.70;;;14.23;62.34;95669.97;4999101;28;20947;-60
2023/10/04 01:37:51;;;;;;;22.23;9.93;;;14.00;97.70;;;14.21;62.23;95672.75;5000999;28;20486;-59
2023/10/04 01:40:24;;;;;;;17.77;10.10;;;13.90;97.70;;;14.19;62.41;95677.34;5003167;28;20937;-59
2023/10/04 01:42:52;;;;;;;17.00;9.83;;;13.90;97.90;;;14.18;62.67;95675.66;4997368;28;20456;-59
2023/10/04 01:45:21;;;;;;;19.07;10.13;;;13.90;98.00;;;14.16;62.48;95675.81;4996925;28;20576;-60
2023/10/04 01:47:49;;;;;;;16.87;10.70;;;13.90;98.00;;;14.15;62.60;95674.13;5001976;28;20560;-61
2023/10/04 01:50:16;;;;;;;15.93;9.43;;;13.90;98.00;;;14.14;62.77;95668.97;5000754;28;21069;-59
2023/10/04 01:52:49;;;;;;;26.03;10.03;;;13.90;98.00;;;14.13;62.10;95672.63;4999947;28;20486;-60
2023/10/04 01:55:17;;;;;;;23.33;9.50;;;13.90;98.00;;;14.09;62.74;95669.41;4999974;28;20446;-60
2023/10/04 01:57:46;;;;;;;19.07;9.57;;;13.80;98.10;;;14.09;62.43;95674.69;4999198;28;20462;-59
2023/10/04 02:00:17;;;;;;;13.83;9.50;;;13.80;98.10;;;14.08;62.43;95673.06;5002736;28;20449;-60
2023/10/04 02:02:46;;;;;;;18.73;10.20;;;13.80;98.10;;;14.08;62.58;95667.75;5000951;28;20508;-60
2023/10/04 02:05:20;;;;;;;15.93;9.40;;;13.80;98.10;;;14.08;62.45;95666.91;4997253;28;20450;-59
2023/10/04 02:07:47;;;;;;;17.13;9.40;;;13.80;98.10;;;14.08;62.56;95670.41;5001036;28;20442;-59
2023/10/04 02:10:17;;;;;;;19.73;9.40;;;13.80;98.10;;;14.09;62.58;95666.75;5001741;28;20461;-60
2023/10/04 02:12:46;;;;;;;17.87;10.03;;;13.80;98.20;;;14.08;62.81;95666.91;4999975;28;20477;-60
2023/10/04 02:15:16;;;;;;;15.63;10.93;;;13.80;98.30;;;14.07;63.08;95668.72;4999878;28;20457;-60
2023/10/04 02:17:44;;;;;;;14.67;9.73;;;13.80;98.40;;;14.05;62.70;95664.53;4997049;28;20446;-59
2023/10/04 02:20:20;;;;;;;17.13;10.33;;;13.80;98.30;;;14.04;62.64;95666.38;4997915;28;20461;-60
2023/10/04 02:22:48;;;;;;;17.43;9.47;;;13.70;98.20;;;14.03;62.87;95674.44;4998333;28;20454;-59
2023/10/04 02:25:17;;;;;;;20.47;9.83;;;13.80;98.30;;;14.03;63.09;95671.81;4997402;28;20469;-59
2023/10/04 02:27:45;;;;;;;31.63;10.60;;;13.70;98.30;;;14.02;63.13;95675.41;5003330;28;20464;-61
2023/10/04 02:30:21;;;;;;;17.13;11.13;;;13.80;98.40;;;14.02;63.31;95672.75;5003078;28;20467;-60
2023/10/04 02:32:49;;;;;;;16.70;10.20;;;13.80;98.60;;;14.01;63.08;95665.81;5005299;28;20510;-60
2023/10/04 02:35:25;;;;;;;18.90;10.23;;;13.70;98.40;;;13.99;62.82;95674.72;5004375;28;20489;-59
2023/10/04 02:37:54;;;;;;;15.70;10.33;;;13.70;98.30;;;14.00;63.08;95664.97;5001307;28;20539;-60
2023/10/04 02:40:22;;;;;;;18.43;10.70;;;13.80;98.30;;;13.99;62.65;95679.19;4999176;28;20991;-59
2023/10/04 02:42:53;;;;;;;23.83;10.70;;;13.70;98.20;;;13.99;62.79;95679.19;5004038;28;20469;-60
2023/10/04 02:45:24;;;;;;;23.37;9.83;;;13.70;98.20;;;13.98;62.61;95678.34;5002647;28;20454;-61
2023/10/04 02:47:52;;;;;;;26.20;8.90;;;13.70;98.10;;;13.98;62.47;95677.50;4999622;28;20950;-60
2023/10/04 02:50:20;;;;;;;19.33;10.10;;;13.70;98.20;;;13.96;62.76;95677.66;4996749;28;20454;-59
2023/10/04 02:52:48;;;;;;;22.30;9.73;;;13.70;98.20;;;13.95;62.78;95677.78;5006692;28;20597;-59
2023/10/04 02:55:17;;;;;;;31.43;10.70;;;13.70;98.40;;;13.94;63.22;95676.97;4996835;28;20947;-61
2023/10/04 02:57:45;;;;;;;19.07;10.83;;;13.70;98.40;;;13.92;63.03;95670.13;5000761;28;20549;-60
2023/10/04 03:00:17;;;;;;;23.03;10.27;;;13.70;98.40;;;13.91;63.26;95676.38;5006310;28;20473;-58
2023/10/04 03:02:45;;;;;;;19.77;10.50;;;13.60;98.90;;;13.89;63.20;95668.59;4999494;28;20468;-60
2023/10/04 03:05:15;;;;;;;17.17;10.73;;;13.60;98.60;;;13.88;63.39;95672.25;5007843;28;20472;-60
2023/10/04 03:07:43;;;;;;;18.90;10.73;;;13.60;98.70;;;13.85;63.04;95666.38;5000064;28;20458;-58
2023/10/04 03:10:12;;;;;;;23.30;10.90;;;13.60;98.60;;;13.83;62.98;95666.50;5005460;28;20537;-61
2023/10/04 03:12:41;;;;;;;14.97;9.47;;;13.60;98.60;;;13.81;63.38;95671.94;4999992;28;20490;-59
2023/10/04 03:15:11;;;;;;;19.73;8.73;;;13.60;98.80;;;13.79;62.77;95667.78;5009335;28;20880;-60
2023/10/04 03:17:39;;;;;;;18.20;8.60;;;13.50;98.20;;;13.74;63.19;95670.00;4996326;28;20887;-59
2023/10/04 03:20:19;;;;;;;22.47;10.83;;;13.50;98.50;;;13.73;63.48;95676.28;5001933;28;20465;-60
2023/10/04 03:22:47;;;;;;;25.20;10.40;;;13.50;98.80;;;13.71;63.03;95680.84;5005329;28;20454;-60
2023/10/04 03:25:16;;;;;;;22.13;10.47;;;13.50;98.70;;;13.69;63.32;95685.44;4999152;28;20458;-60
2023/10/04 03:27:44;;;;;;;20.53;10.80;;;13.40;98.70;;;13.66;63.55;95675.97;5002702;28;20878;-60
2023/10/04 03:30:15;;;;;;;24.60;11.07;;;13.40;98.80;;;13.66;63.53;95683.09;4998568;28;21025;-60
2023/10/04 03:32:45;;;;;;;15.20;9.90;;;13.40;98.80;;;13.62;63.71;95683.38;4997544;28;20910;-60
2023/10/04 03:35:14;;;;;;;16.00;9.97;;;13.40;98.80;;;13.61;63.47;95681.69;5004364;28;20454;-62
2023/10/04 03:37:49;;;;;;;18.93;10.57;;;13.40;98.80;;;13.58;63.06;95674.03;5002700;28;20462;-60
2023/10/04 03:40:17;;;;;;;26.63;11.90;;;13.30;98.60;;;13.57;63.51;95680.31;5003170;28;20536;-61
2023/10/04 03:42:46;;;;;;;22.30;12.13;;;13.30;98.70;;;13.55;63.70;95684.88;5002940;28;20907;-59
2023/10/04 03:45:17;;;;;;;20.73;10.57;;;13.30;98.70;;;13.54;63.76;95680.59;5001867;28;20490;-63
2023/10/04 03:47:50;;;;;;;21.63;10.27;;;13.30;98.70;;;13.52;63.53;95685.16;5005702;28;20458;-60
2023/10/04 03:50:19;;;;;;;18.87;9.90;;;13.30;98.70;;;13.51;63.50;95683.50;5003487;28;20450;-60
2023/10/04 03:52:47;;;;;;;16.00;10.13;;;13.30;98.80;;;13.50;63.63;95689.75;5000689;28;20497;-62
2023/10/04 03:55:15;;;;;;;25.07;10.17;;;13.30;98.80;;;13.47;64.02;95683.91;5002136;28;20458;-59
2023/10/04 03:57:43;;;;;;;22.93;10.70;;;13.20;99.00;;;13.48;63.71;95685.56;5005408;28;20458;-59
2023/10/04 04:00:17;;;;;;;23.30;11.57;;;13.20;99.10;;;13.46;63.94;95677.78;4999594;28;21332;-60
2023/10/04 04:02:48;;;;;;;25.90;11.13;;;13.20;99.00;;;13.44;63.67;95671.81;4998708;28;20526;-59
2023/10/04 04:05:15;;;;;;;17.07;10.57;;;13.20;98.80;;;13.41;63.85;95678.19;5001462;28;20464;-59
2023/10/04 04:07:43;;;;;;;22.60;9.90;;;13.20;98.70;;;13.38;63.75;95677.63;4998343;28;20454;-60
2023/10/04 04:10:14;;;;;;;18.43;10.93;;;13.10;98.60;;;13.34;63.70;95671.81;5004249;28;21000;-60
2023/10/04 04:12:42;;;;;;;19.23;11.63;;;13.10;99.10;;;13.33;63.72;95683.31;5002840;28;20943;-61
2023/10/04 04:15:11;;;;;;;27.20;12.33;;;13.10;98.80;;;13.32;63.65;95675.50;5002594;28;20537;-60
2023/10/04 04:17:39;;;;;;;19.87;11.20;;;13.10;98.90;;;13.31;64.04;95685.25;5003207;28;20449;-60
2023/10/04 04:20:14;;;;;;;26.70;11.10;;;13.00;99.00;;;13.31;63.70;95676.47;5003410;28;20480;-58
2023/10/04 04:22:45;;;;;;;20.50;12.10;;;13.10;99.00;;;13.31;63.95;95679.97;5001541;28;20455;-59
2023/10/04 04:25:15;;;;;;;27.53;11.47;;;13.10;99.00;;;13.32;63.92;95681.63;5000752;28;20541;-58
2023/10/04 04:27:47;;;;;;;20.30;11.40;;;13.10;99.10;;;13.34;63.70;95678.88;5005364;28;20493;-59
2023/10/04 04:30:19;;;;;;;29.10;11.70;;;13.10;99.00;;;13.36;63.95;95680.41;5001100;28;20457;-61
2023/10/04 04:32:49;;;;;;;32.43;12.10;;;13.10;99.20;;;13.36;63.93;95683.06;4998874;28;20537;-60
2023/10/04 04:35:34;;;;;;;31.30;11.90;;;13.10;99.10;;;13.36;64.01;95690.16;5006643;28;20970;-60
2023/10/04 04:38:14;;;;;;;20.03;10.93;;;13.10;99.10;;;13.35;63.73;95683.19;5006551;28;20548;-58
2023/10/04 04:40:44;;;;;;;34.33;11.73;;;13.10;99.10;;;13.34;63.76;95677.09;5002676;28;20550;-58
2023/10/04 04:43:34;;;;;;;24.67;13.37;;;13.10;99.20;;;13.33;64.34;95678.03;5001360;28;20556;-58
2023/10/04 04:46:01;;;;;;;40.63;12.13;;;13.10;99.20;;;13.34;64.14;95681.50;4998200;28;20584;-60
2023/10/04 04:48:30;;;;;;;29.53;12.50;;;13.10;99.20;;;13.34;64.11;95684.16;5000083;28;20467;-61
2023/10/04 04:51:10;;;;;;;32.33;11.80;;;13.10;99.30;;;13.36;63.76;95676.94;5004367;28;20985;-58
2023/10/04 04:53:39;;;;;;;44.60;12.90;;;13.10;99.30;;;13.35;63.98;95680.56;4999682;28;21034;-58
2023/10/04 04:56:08;;;;;;;57.57;14.73;;;13.10;99.30;;;13.39;64.02;95688.06;5001988;28;20486;-60
2023/10/04 04:58:35;;;;;;;36.23;13.37;;;13.10;99.30;;;13.47;63.90;95690.03;5000817;28;20454;-60
2023/10/04 05:01:08;;;;;;;37.53;12.37;;;13.20;99.40;;;13.52;63.88;95695.72;5004646;28;20875;-61
2023/10/04 05:03:35;;;;;;;31.07;14.60;;;13.30;99.40;;;13.55;63.96;95690.16;5007542;28;20456;-60
2023/10/04 05:06:05;;;;;;;34.93;14.03;;;13.30;99.30;;;13.58;63.38;95692.53;5000269;28;20822;-58
2023/10/04 05:08:32;;;;;;;34.60;13.33;;;13.30;99.10;;;13.61;63.52;95691.44;5004170;28;20491;-60
2023/10/04 05:11:01;;;;;;;56.80;14.77;;;13.40;99.00;;;13.63;63.41;95695.63;5007031;28;20509;-61
2023/10/04 05:13:28;;;;;;;35.73;14.23;;;13.40;98.80;;;13.66;63.47;95696.31;4996844;28;20561;-59
2023/10/04 05:15:56;;;;;;;43.23;15.57;;;13.40;98.80;;;13.68;63.37;95694.34;5003244;28;20564;-61
2023/10/04 05:18:23;;;;;;;31.63;13.23;;;13.40;98.80;;;13.69;63.07;95694.22;4969492;28;20463;-60
2023/10/04 05:20:53;;;;;;;32.83;16.13;;;13.40;98.80;;;13.73;63.07;95700.91;4971878;28;20501;-60
2023/10/04 05:23:22;;;;;;;41.73;15.30;;;13.50;98.80;;;13.76;62.81;95708.56;4991747;28;20489;-61
2023/10/04 05:25:50;;;;;;;31.97;15.07;;;13.50;98.70;;;13.79;63.05;95700.34;4997586;28;20542;-61
2023/10/04 05:28:18;;;;;;;32.23;14.10;;;13.50;98.70;;;13.83;62.84;95711.47;4994652;28;20450;-59
2023/10/04 05:30:46;;;;;;;26.70;14.20;;;13.60;98.70;;;13.88;62.95;95703.97;4992641;28;20505;-60
2023/10/04 05:33:13;;;;;;;38.20;15.50;;;13.60;98.60;;;13.94;62.57;95714.00;4994785;28;20493;-59
2023/10/04 05:35:41;;;;;;;29.30;15.20;;;13.70;98.50;;;13.99;62.59;95701.19;4996401;28;20521;-58
2023/10/04 05:38:10;;;;;;;29.20;14.10;;;13.70;98.80;;;14.04;62.40;95699.94;4996405;28;20477;-59
2023/10/04 05:40:43;;;;;;;28.77;13.50;;;13.80;98.50;;;14.10;62.71;95704.66;4998265;28;20478;-59
2023/10/04 05:43:10;;;;;;;19.20;12.07;;;13.80;98.40;;;14.18;62.29;95704.78;5000697;28;20512;-60
2023/10/04 05:45:38;;;;;;;24.40;12.67;;;13.90;98.30;;;14.29;62.25;95711.72;4999804;28;20891;-61
2023/10/04 05:48:09;;;;;;;33.80;12.83;;;14.00;98.30;;;14.45;62.37;95716.41;5000097;28;21067;-61
2023/10/04 05:50:36;;;;;;;48.50;13.70;;;14.10;98.70;;;14.62;61.83;95721.00;4999048;28;20829;-60
2023/10/04 05:53:07;;;;;;;33.37;12.30;;;14.20;98.10;;;14.83;61.50;95725.28;5012560;28;20497;-61
2023/10/04 05:55:35;;;;;;;22.30;11.03;;;14.40;97.90;;;15.06;60.99;95725.75;5008492;28;20954;-59
2023/10/04 05:58:07;;;;;;;23.87;10.03;;;14.70;97.70;;;15.30;60.62;95735.78;4999475;28;20538;-60
2023/10/04 06:00:34;;;;;;;30.00;11.77;;;14.90;97.40;;;15.55;59.83;95730.75;5001895;28;20485;-60
2023/10/04 06:03:11;;;;;;;22.53;11.13;;;15.10;96.90;;;15.81;59.35;95732.72;5002671;28;20466;-60
2023/10/04 06:05:38;;;;;;;25.70;10.50;;;15.40;96.60;;;16.04;59.13;95725.97;5007609;28;20505;-60
2023/10/04 06:08:10;;;;;;;22.60;10.90;;;15.60;96.20;;;16.31;58.48;95729.50;5008663;28;20515;-59
2023/10/04 06:10:37;;;;;;;34.87;12.90;;;15.90;95.80;;;16.58;58.14;95733.88;5002526;28;20492;-59
2023/10/04 06:13:11;;;;;;;30.87;10.97;;;16.20;95.30;;;16.84;57.50;95739.19;5003207;28;21559;-61
2023/10/04 06:15:41;;;;;;;22.10;12.30;;;16.40;94.90;;;17.15;56.73;95738.72;5006036;28;20480;-59
2023/10/04 06:18:08;;;;;;;34.13;12.27;;;16.70;94.30;;;17.43;56.34;95735.84;5004127;28;20489;-59
2023/10/04 06:20:38;;;;;;;26.37;12.93;;;17.00;93.90;;;17.72;55.75;95732.75;5007778;28;20543;-59
2023/10/04 06:23:06;;;;;;;28.97;11.73;;;17.20;93.20;;;18.04;54.91;95733.00;5007519;28;20896;-59
2023/10/04 06:25:34;;;;;;;25.23;11.70;;;17.60;92.60;;;18.35;54.21;95732.34;5003149;28;20480;-59
2023/10/04 06:28:04;;;;;;;33.00;12.30;;;17.90;91.90;;;18.69;53.74;95734.00;5002004;28;20458;-60
2023/10/04 06:30:34;;;;;;;33.13;11.40;;;18.20;91.10;;;19.03;53.09;95730.28;5004465;28;20545;-59
2023/10/04 06:33:03;;;;;;;26.83;11.60;;;18.50;90.30;;;19.37;51.74;95734.50;5002764;28;20482;-59
2023/10/04 06:35:30;;;;;;;24.43;11.87;;;18.80;90.10;;;19.71;51.56;95735.00;5002681;28;20541;-59
2023/10/04 06:37:59;;;;;;;23.63;11.87;;;19.10;88.10;;;20.03;50.79;95733.16;5003492;28;20989;-59
2023/10/04 06:40:27;;;;;;;25.13;12.50;;;19.50;86.50;;;20.37;50.04;95733.75;5004042;28;20693;-59
2023/10/04 06:42:55;;;;;;;25.27;12.03;;;19.80;85.30;;;20.72;49.57;95737.63;5001502;28;20457;-59
2023/10/04 06:45:24;;;;;;;27.40;12.33;;;20.10;83.90;;;21.11;48.69;95747.25;5002395;28;20575;-60
2023/10/04 06:47:56;;;;;;;30.23;12.73;;;20.50;82.20;;;21.53;48.30;95754.88;4997650;28;20797;-61
2023/10/04 06:50:28;;;;;;;22.83;12.27;;;20.90;80.80;;;21.87;47.38;95756.91;5001664;28;20957;-60
2023/10/04 06:52:56;;;;;;;29.33;12.87;;;21.20;79.50;;;22.16;46.73;95750.66;5003342;28;20477;-60
2023/10/04 06:55:23;;;;;;;24.43;12.13;;;21.50;77.70;;;22.52;46.16;95749.78;5004828;28;20712;-60
2023/10/04 06:57:50;;;;;;;24.20;12.00;;;21.80;76.30;;;22.92;46.16;95744.72;5003889;28;20985;-61
2023/10/04 07:00:18;;;;;;;27.10;11.20;;;22.20;75.60;;;23.34;44.92;95747.50;5000956;28;20449;-60
2023/10/04 07:02:47;;;;;;;32.23;12.70;;;22.60;75.10;;;23.80;44.55;95749.56;5001912;28;20458;-60
2023/10/04 07:05:19;;;;;;;28.57;12.53;;;23.10;74.10;;;24.31;44.24;95744.81;5007274;28;20453;-60
2023/10/04 07:07:47;;;;;;;26.00;12.13;;;23.50;73.70;;;24.79;44.32;95746.53;5003500;28;20443;-60
2023/10/04 07:10:15;;;;;;;22.97;13.00;;;24.00;72.30;;;25.27;43.51;95746.25;5005753;28;20461;-62
2023/10/04 07:12:43;;;;;;;27.13;12.00;;;24.50;71.50;;;25.72;43.01;95745.53;5004198;28;20504;-60
2023/10/04 07:15:11;;;;;;;18.77;11.67;;;24.90;69.50;;;26.16;41.90;95738.50;5006737;28;20486;-60
2023/10/04 07:17:40;;;;;;;21.60;11.43;;;25.40;67.70;;;26.62;41.51;95740.06;5002808;28;20542;-61
2023/10/04 07:20:13;;;;;;;22.27;12.57;;;25.90;65.90;;;27.04;40.12;95730.63;4999781;28;20576;-61
2023/10/04 07:22:43;;;;;;;27.23;12.37;;;26.40;64.30;;;27.51;39.63;95729.13;4999762;28;20450;-60
2023/10/04 07:25:12;;;;;;;26.27;12.43;;;26.90;61.80;;;27.96;39.19;95732.53;5008209;28;20472;-60
2023/10/04 07:27:41;;;;;;;18.67;9.80;;;27.40;61.40;;;28.37;37.97;95728.25;5003281;28;20555;-60
2023/10/04 07:30:12;;;;;;;16.03;9.87;;;27.90;59.60;;;28.75;37.33;95727.03;5002245;28;20552;-60
2023/10/04 07:32:42;;;;;;;20.33;10.70;;;28.30;58.10;;;29.11;36.61;95725.19;5001940;28;20491;-60
2023/10/04 07:35:12;;;;;;;22.30;11.03;;;28.70;56.80;;;29.41;35.72;95718.84;4996305;28;20191;-61
2023/10/04 07:37:42;;;;;;;26.03;9.60;;;29.10;55.80;;;29.69;35.81;95726.22;5003406;28;20711;-61
2023/10/04 07:40:13;;;;;;;17.43;10.20;;;29.40;54.60;;;29.96;34.87;95723.81;5007363;28;20229;-59
2023/10/04 07:42:40;;;;;;;24.20;10.70;;;29.70;54.10;;;30.13;34.72;95720.31;5000459;28;20197;-59
2023/10/04 07:45:08;;;;;;;20.95;11.68;;;29.90;52.40;;;30.27;34.46;95726.25;4999581;28;20213;-58
2023/10/04 07:47:36;;;;;;;21.85;12.18;;;30.00;52.20;;;30.36;33.70;95725.63;4998531;28;20269;-61
2023/10/04 07:50:05;;;;;;;20.40;11.40;;;30.10;51.20;;;30.50;33.60;95728.88;5000015;28;20207;-61
2023/10/04 07:52:32;;;;;;;15.55;10.30;;;30.20;51.00;;;30.61;33.61;95720.91;5000900;28;20245;-61
2023/10/04 07:55:01;;;;;;;27.40;11.70;;;30.30;51.00;;;30.60;32.98;95713.84;5002628;28;20202;-60
2023/10/04 07:57:28;;;;;;;25.63;10.48;;;30.30;50.30;;;30.44;32.28;95713.56;5000282;28;20227;-64
2023/10/04 07:59:56;;;;;;;25.98;10.73;;;30.20;49.20;;;30.11;32.59;95723.25;5001027;28;20240;-61
2023/10/04 08:02:23;;;;;;;18.90;10.35;;;30.00;48.90;;;29.82;32.30;95712.41;4999937;28;20305;-60
2023/10/04 08:04:50;;;;;;;17.13;9.95;;;29.70;48.20;;;29.60;32.12;95711.38;5001246;28;20672;-61
2023/10/04 08:07:18;;;;;;;16.65;9.98;;;29.40;48.50;;;29.48;32.21;95704.09;5003293;28;20214;-59
2023/10/04 08:09:47;;;;;;;15.43;10.07;;;29.30;48.00;;;29.40;31.50;95707.16;5005211;28;20226;-60
2023/10/04 08:12:19;;;;;;;16.90;10.17;;;29.10;48.20;;;29.33;31.30;95707.28;5004458;28;20280;-62
2023/10/04 08:14:47;;;;;;;20.70;10.27;;;28.90;47.80;;;29.47;32.13;95707.88;5001083;28;20210;-61
2023/10/04 08:17:16;;;;;;;22.37;10.33;;;28.90;48.10;;;29.59;31.91;95699.72;4999787;28;20242;-60
2023/10/04 08:19:44;;;;;;;23.47;9.27;;;29.00;47.90;;;29.52;31.63;95712.56;5001414;28;20202;-62
2023/10/04 08:22:11;;;;;;;17.57;11.07;;;29.00;47.90;;;29.37;31.94;95693.28;4999135;28;20593;-60
2023/10/04 08:24:39;;;;;;;16.83;9.77;;;28.80;47.90;;;29.25;31.52;95687.84;5007617;28;20211;-60
2023/10/04 08:27:06;;;;;;;23.27;11.43;;;28.70;47.90;;;29.21;30.99;95687.50;5007599;28;20477;-60
2023/10/04 08:29:36;;;;;;;28.47;11.70;;;28.70;47.90;;;29.09;31.64;95689.38;4997953;28;20456;-57
2023/10/04 08:32:04;;;;;;;26.83;12.00;;;28.50;47.70;;;29.06;31.37;95689.84;4999979;28;20230;-61
2023/10/04 08:34:31;;;;;;;20.30;10.60;;;28.40;47.80;;;29.25;32.22;95685.16;5005671;28;20497;-60
2023/10/04 08:36:59;;;;;;;18.20;9.00;;;28.50;48.40;;;29.53;31.77;95687.13;5004042;28;20477;-59
2023/10/04 08:39:27;;;;;;;22.97;10.90;;;28.70;48.50;;;29.88;32.00;95679.97;5001065;28;20656;-61
2023/10/04 08:41:54;;;;;;;21.33;9.80;;;29.00;48.40;;;30.18;31.10;95680.53;5003802;28;20464;-61
2023/10/04 08:44:22;;;;;;;18.87;9.20;;;29.30;47.90;;;30.44;31.50;95683.72;5000842;28;20195;-60
2023/10/04 08:46:53;;;;;;;18.40;9.73;;;29.60;47.70;;;30.67;31.35;95682.72;5001255;28;20221;-60
2023/10/04 08:49:20;;;;;;;25.37;12.07;;;29.90;47.30;;;30.89;30.39;95671.13;4998033;28;20254;-60
2023/10/04 08:51:54;;;;;;;45.33;17.50;;;30.10;46.70;;;30.98;30.44;95672.38;4998274;28;20227;-60
2023/10/04 08:54:24;;;;;;;19.30;11.97;;;30.20;46.50;;;30.97;29.96;95669.88;4999568;28;20241;-60
2023/10/04 08:56:57;;;;;;;18.67;10.37;;;30.30;46.40;;;30.87;29.97;95665.94;4999189;28;20262;-60
2023/10/04 08:59:26;;;;;;;20.63;10.60;;;30.20;46.00;;;30.68;30.12;95678.97;4999029;28;20672;-61
2023/10/04 09:01:56;;;;;;;20.43;9.63;;;30.00;46.10;;;30.42;29.49;95675.00;4997058;28;20639;-59
2023/10/04 09:04:24;;;;;;;28.77;10.43;;;29.80;45.50;;;30.34;30.44;95678.09;5001052;28;20202;-59
2023/10/04 09:06:52;;;;;;;20.80;10.37;;;29.60;46.10;;;30.31;30.06;95679.41;4997979;28;20219;-58
2023/10/04 09:09:20;;;;;;;13.67;9.07;;;29.60;46.20;;;30.34;30.83;95673.47;4999519;28;20771;-61
2023/10/04 09:11:49;;;;;;;14.93;10.33;;;29.60;46.30;;;30.45;30.42;95674.50;4997421;28;20265;-61
2023/10/04 09:14:16;;;;;;;21.03;11.27;;;29.70;46.60;;;30.34;29.95;95668.03;4999363;28;20234;-60
2023/10/04 09:16:44;;;;;;;19.43;11.00;;;29.60;46.40;;;30.18;30.14;95675.09;4997999;28;20249;-59
2023/10/04 09:19:17;;;;;;;16.60;10.10;;;29.50;46.10;;;30.16;30.30;95670.97;5006888;28;20202;-66
2023/10/04 09:21:44;;;;;;;15.83;9.97;;;29.40;46.40;;;30.27;30.63;95671.97;5000831;28;20480;-60
2023/10/04 09:24:13;;;;;;;18.30;9.47;;;29.50;46.30;;;30.41;29.77;95667.91;4997476;28;20462;-61
2023/10/04 09:26:42;;;;;;;28.33;11.23;;;29.60;46.20;;;30.55;30.65;95662.97;5000875;28;20566;-60
2023/10/04 09:29:11;;;;;;;23.97;9.50;;;29.80;46.50;;;30.69;30.30;95656.16;5000593;28;20718;-60
2023/10/04 09:31:50;;;;;;;26.60;9.60;;;29.90;46.50;;;30.66;29.77;95659.38;4997767;28;20229;-60
2023/10/04 09:34:18;;;;;;;15.13;9.70;;;30.00;45.80;;;30.57;29.93;95650.00;5003255;28;20210;-60
2023/10/04 09:36:46;;;;;;;16.73;8.93;;;30.00;45.20;;;30.61;30.41;95645.69;4999385;28;20639;-60
2023/10/04 09:39:16;;;;;;;15.40;8.67;;;30.00;46.10;;;30.61;30.43;95650.31;5003764;28;20289;-61
2023/10/04 09:41:47;;;;;;;14.50;9.07;;;30.00;45.90;;;30.61;30.26;95650.31;5003344;28;20218;-60
2023/10/04 09:44:23;;;;;;;13.93;9.27;;;30.00;46.10;;;30.57;30.57;95645.38;5006795;28;20309;-59
2023/10/04 09:46:54;;;;;;;25.13;9.67;;;30.00;45.80;;;30.64;30.31;95649.81;5005297;28;20225;-59
2023/10/04 09:49:28;;;;;;;18.90;9.47;;;30.00;45.80;;;30.70;29.98;95649.66;5006166;28;20195;-59
2023/10/04 09:51:56;;;;;;;22.00;8.70;;;30.00;45.70;;;30.85;30.22;95650.97;5007255;28;20285;-61
2023/10/04 09:54:24;;;;;;;17.40;9.30;;;30.10;45.90;;;31.01;30.25;95654.75;5004066;28;20786;-63
2023/10/04 09:56:53;;;;;;;12.50;8.83;;;30.30;45.70;;;31.17;30.06;95642.19;5007959;28;20231;-60
2023/10/04 09:59:23;;;;;;;13.93;8.97;;;30.40;45.40;;;31.30;29.53;95641.03;5007072;28;20848;-61
2023/10/04 10:01:55;;;;;;;20.43;9.07;;;30.60;45.50;;;31.43;29.87;95643.34;5003485;28;20214;-61
2023/10/04 10:04:27;;;;;;;13.83;8.50;;;30.70;45.60;;;31.49;29.67;95636.09;5002248;28;20202;-59
2023/10/04 10:07:16;;;;;;;17.97;9.10;;;30.80;45.50;;;31.57;28.94;95641.94;5006569;28;20358;-60
2023/10/04 10:09:53;;;;;;;18.43;8.93;;;30.90;44.80;;;31.59;29.07;95633.53;5005622;28;20265;-59
2023/10/04 10:12:21;;;;;;;14.33;9.10;;;30.90;44.60;;;31.56;29.28;95631.31;5002149;28;20230;-60
2023/10/04 10:14:49;;;;;;;17.77;9.17;;;30.90;44.40;;;31.45;28.93;95623.00;5008430;28;20222;-60
2023/10/04 10:17:17;;;;;;;29.63;10.17;;;30.80;44.20;;;31.34;29.27;95626.69;5003406;28;20222;-59